Time;durP1;ratioP1;P1;durP2;ratioP2;P2;SDS_P1;SDS_P2;PMS_P1;PMS_P2;Temp;Humidity;BMP_temperature;BMP_pressure;BME280_temperature;BME280_humidity;BME280_pressure;Samples;Min_cycle;Max_cycle;Signal;HPM_P1;HPM_P2
2022/03/02 00:01:44;;;;;;;;;;;22.80;42.30;;;;;;6297172;27;19969;-56
2022/03/02 00:04:45;;;;;;;;;;;22.90;42.40;;;;;;6311948;27;19966;-53
2022/03/02 00:07:47;;;;;;;;;;;22.70;42.40;;;;;;6312913;27;19923;-54
2022/03/02 00:10:48;;;;;;;;;;;22.70;42.30;;;;;;6310286;27;19935;-55
2022/03/02 00:13:50;;;;;;;;;;;22.60;42.20;;;;;;6307768;27;20033;-55
2022/03/02 00:16:51;;;;;;;;;;;22.80;42.50;;;;;;6319069;27;19967;-52
2022/03/02 00:19:53;;;;;;;;;;;22.50;42.40;;;;;;6317731;27;20789;-53
2022/03/02 00:22:55;;;;;;;;;;;22.30;42.00;;;;;;6306439;27;19931;-51
2022/03/02 00:25:56;;;;;;;;;;;22.50;42.30;;;;;;6313280;27;20033;-56
2022/03/02 00:28:58;;;;;;;;;;;22.90;42.50;;;;;;6312828;27;20171;-56
2022/03/02 00:31:59;;;;;;;;;;;22.70;42.20;;;;;;6314837;27;19923;-56
2022/03/02 00:35:00;;;;;;;;;;;22.70;42.50;;;;;;6311743;27;20003;-55
2022/03/02 00:38:03;;;;;;;;;;;22.60;42.40;;;;;;6308206;27;19923;-54
2022/03/02 00:41:05;;;;;;;;;;;22.80;42.40;;;;;;6306123;27;20054;-54
2022/03/02 00:44:06;;;;;;;;;;;22.40;42.10;;;;;;6314609;27;20842;-56
2022/03/02 00:47:08;;;;;;;;;;;22.10;42.10;;;;;;6314563;27;20200;-52
2022/03/02 00:50:10;;;;;;;;;;;22.40;42.20;;;;;;6313086;27;20037;-52
2022/03/02 00:53:14;;;;;;;;;;;22.70;42.20;;;;;;6300407;27;20058;-56
2022/03/02 00:56:16;;;;;;;;;;;22.90;42.40;;;;;;6313842;27;19927;-54
2022/03/02 00:59:17;;;;;;;;;;;22.30;42.20;;;;;;6313196;27;20618;-55
2022/03/02 01:02:19;;;;;;;;;;;22.70;42.40;;;;;;6300983;27;19971;-53
2022/03/02 01:05:20;;;;;;;;;;;22.40;42.10;;;;;;6321420;27;20000;-50
2022/03/02 01:08:22;;;;;;;;;;;22.40;42.20;;;;;;6321947;27;19993;-56
2022/03/02 01:11:24;;;;;;;;;;;22.50;42.20;;;;;;6322943;27;19931;-50
2022/03/02 01:14:25;;;;;;;;;;;22.60;42.30;;;;;;6324195;27;19931;-53
2022/03/02 01:17:27;;;;;;;;;;;22.30;42.30;;;;;;6327351;27;20030;-55
2022/03/02 01:20:28;;;;;;;;;;;22.60;42.40;;;;;;6332079;27;19931;-54
2022/03/02 01:23:30;;;;;;;;;;;22.20;42.20;;;;;;6329893;27;19923;-58
2022/03/02 01:26:32;;;;;;;;;;;22.40;42.30;;;;;;6329727;27;20031;-52
2022/03/02 01:29:34;;;;;;;;;;;22.80;42.60;;;;;;6330928;27;19931;-52
2022/03/02 01:32:36;;;;;;;;;;;22.70;42.50;;;;;;6330771;27;20425;-55
2022/03/02 01:35:37;;;;;;;;;;;22.20;42.30;;;;;;6323907;27;19923;-56
2022/03/02 01:38:42;;;;;;;;;;;22.60;42.50;;;;;;6308654;27;20800;-54
2022/03/02 01:41:43;;;;;;;;;;;22.10;42.20;;;;;;6304962;27;20046;-53
2022/03/02 01:44:47;;;;;;;;;;;22.90;42.40;;;;;;6331568;27;19965;-56
2022/03/02 01:47:48;;;;;;;;;;;22.20;42.20;;;;;;6323175;27;20903;-54
2022/03/02 01:50:49;;;;;;;;;;;22.80;42.60;;;;;;6325192;27;19923;-52
2022/03/02 01:53:51;;;;;;;;;;;22.60;42.60;;;;;;6323930;27;20034;-56
2022/03/02 01:56:53;;;;;;;;;;;22.50;42.30;;;;;;6323812;27;19935;-54
2022/03/02 01:59:54;;;;;;;;;;;22.50;42.30;;;;;;6303176;27;21726;-59
2022/03/02 02:02:56;;;;;;;;;;;22.40;42.50;;;;;;6324616;27;20037;-51
2022/03/02 02:05:57;;;;;;;;;;;22.80;42.50;;;;;;6325845;27;19935;-52
2022/03/02 02:09:00;;;;;;;;;;;22.50;42.30;;;;;;6322177;27;20831;-53
2022/03/02 02:12:02;;;;;;;;;;;22.60;42.40;;;;;;6323373;27;19934;-54
2022/03/02 02:15:05;;;;;;;;;;;22.40;42.00;;;;;;6309007;27;19936;-55
2022/03/02 02:18:06;;;;;;;;;;;22.30;42.20;;;;;;6318335;27;20061;-55
2022/03/02 02:21:09;;;;;;;;;;;22.50;42.50;;;;;;6325560;27;19950;-54
2022/03/02 02:24:10;;;;;;;;;;;22.20;42.20;;;;;;6320605;27;20046;-52
2022/03/02 02:27:12;;;;;;;;;;;22.50;42.50;;;;;;6323429;27;19927;-56
2022/03/02 02:30:15;;;;;;;;;;;22.30;42.00;;;;;;6324682;27;19932;-61
2022/03/02 02:33:16;;;;;;;;;;;22.50;42.40;;;;;;6322065;27;19938;-51
2022/03/02 02:36:18;;;;;;;;;;;22.00;42.30;;;;;;6319089;27;20081;-55
2022/03/02 02:39:20;;;;;;;;;;;22.40;42.10;;;;;;6301154;27;20030;-55
2022/03/02 02:42:22;;;;;;;;;;;22.00;42.10;;;;;;6325938;27;20926;-54
2022/03/02 02:45:24;;;;;;;;;;;22.40;42.30;;;;;;6317999;27;20042;-56
2022/03/02 02:48:25;;;;;;;;;;;22.50;42.40;;;;;;6320905;27;19971;-52
2022/03/02 02:51:27;;;;;;;;;;;22.50;42.40;;;;;;6322195;27;20876;-55
2022/03/02 02:54:28;;;;;;;;;;;22.00;42.10;;;;;;6323513;27;19970;-50
2022/03/02 02:57:30;;;;;;;;;;;22.50;42.50;;;;;;6317653;27;19923;-53
2022/03/02 03:00:32;;;;;;;;;;;22.60;42.60;;;;;;6320983;27;20854;-54
2022/03/02 03:03:34;;;;;;;;;;;22.30;42.30;;;;;;6316191;27;20788;-52
2022/03/02 03:06:36;;;;;;;;;;;22.40;42.40;;;;;;6319224;27;19924;-55
2022/03/02 03:09:37;;;;;;;;;;;22.70;42.50;;;;;;6321560;27;19929;-51
2022/03/02 03:12:40;;;;;;;;;;;22.40;42.50;;;;;;6312883;27;20053;-52
2022/03/02 03:15:42;;;;;;;;;;;22.40;42.20;;;;;;6316763;27;20044;-54
2022/03/02 03:18:43;;;;;;;;;;;22.40;42.30;;;;;;6321383;27;20042;-58
2022/03/02 03:21:45;;;;;;;;;;;22.50;42.40;;;;;;6319445;27;19931;-54
2022/03/02 03:24:46;;;;;;;;;;;22.00;42.10;;;;;;6321217;27;19938;-49
2022/03/02 03:27:49;;;;;;;;;;;22.30;42.30;;;;;;6318438;27;19939;-54
2022/03/02 03:30:50;;;;;;;;;;;22.50;42.20;;;;;;6320421;27;20144;-55
2022/03/02 03:33:52;;;;;;;;;;;22.20;42.30;;;;;;6321529;27;19939;-53
2022/03/02 03:36:53;;;;;;;;;;;22.10;42.30;;;;;;6320101;27;19935;-55
2022/03/02 03:39:55;;;;;;;;;;;22.10;41.90;;;;;;6315947;27;20304;-56
2022/03/02 03:42:57;;;;;;;;;;;22.20;41.90;;;;;;6303834;27;20196;-52
2022/03/02 03:45:59;;;;;;;;;;;22.00;42.10;;;;;;6290825;27;20037;-51
2022/03/02 03:49:00;;;;;;;;;;;21.90;41.90;;;;;;6313739;27;20085;-51
2022/03/02 03:52:03;;;;;;;;;;;22.00;42.00;;;;;;6325311;27;20740;-52
2022/03/02 03:55:05;;;;;;;;;;;22.20;42.20;;;;;;6326571;27;20050;-54
2022/03/02 03:58:06;;;;;;;;;;;22.40;42.10;;;;;;6313055;27;19927;-52
2022/03/02 04:01:08;;;;;;;;;;;22.50;42.20;;;;;;6294634;27;20895;-52
2022/03/02 04:04:10;;;;;;;;;;;22.30;42.20;;;;;;6317947;27;19938;-55
2022/03/02 04:07:12;;;;;;;;;;;22.00;42.10;;;;;;6314837;27;19938;-55
2022/03/02 04:10:14;;;;;;;;;;;22.30;42.20;;;;;;6308612;27;20620;-53
2022/03/02 04:13:16;;;;;;;;;;;22.10;42.10;;;;;;6301492;27;19966;-51
2022/03/02 04:16:17;;;;;;;;;;;22.40;42.20;;;;;;6289547;27;20090;-51
2022/03/02 04:19:19;;;;;;;;;;;22.00;42.00;;;;;;6313265;27;19932;-53
2022/03/02 04:22:21;;;;;;;;;;;22.30;42.30;;;;;;6321322;27;20979;-55
2022/03/02 04:25:22;;;;;;;;;;;22.30;42.40;;;;;;6321022;27;19995;-51
2022/03/02 04:28:24;;;;;;;;;;;22.30;42.30;;;;;;6301183;27;19924;-55
2022/03/02 04:31:25;;;;;;;;;;;22.60;42.40;;;;;;6315242;27;20681;-53
2022/03/02 04:34:27;;;;;;;;;;;22.30;42.40;;;;;;6316755;27;20701;-54
2022/03/02 04:37:28;;;;;;;;;;;22.30;42.20;;;;;;6319957;27;20792;-57
2022/03/02 04:40:30;;;;;;;;;;;22.30;42.20;;;;;;6320798;27;20826;-54
2022/03/02 04:43:32;;;;;;;;;;;22.30;42.20;;;;;;6317044;27;20886;-56
2022/03/02 04:46:33;;;;;;;;;;;22.20;42.10;;;;;;6317113;27;19967;-56
2022/03/02 04:49:35;;;;;;;;;;;22.00;42.20;;;;;;6317087;27;19931;-56
2022/03/02 04:52:37;;;;;;;;;;;22.00;42.20;;;;;;6318354;27;19924;-55
2022/03/02 04:55:38;;;;;;;;;;;22.10;42.20;;;;;;6315863;27;19961;-54
2022/03/02 04:58:40;;;;;;;;;;;22.10;42.20;;;;;;6320794;27;20267;-51
2022/03/02 05:01:41;;;;;;;;;;;22.40;42.40;;;;;;6311167;27;20104;-53
2022/03/02 05:04:43;;;;;;;;;;;22.00;42.10;;;;;;6322010;27;20875;-54
2022/03/02 05:07:45;;;;;;;;;;;21.80;41.90;;;;;;6323528;27;19994;-55
2022/03/02 05:10:46;;;;;;;;;;;22.10;42.10;;;;;;6321917;27;20025;-51
2022/03/02 05:13:48;;;;;;;;;;;21.90;42.10;;;;;;6323195;27;20031;-55
2022/03/02 05:16:49;;;;;;;;;;;21.90;42.00;;;;;;6318291;27;20058;-50
2022/03/02 05:19:51;;;;;;;;;;;21.90;42.10;;;;;;6315316;27;19971;-55
2022/03/02 05:22:53;;;;;;;;;;;22.30;42.20;;;;;;6313952;27;20284;-53
2022/03/02 05:25:54;;;;;;;;;;;22.40;42.20;;;;;;6318980;27;19958;-54
2022/03/02 05:28:55;;;;;;;;;;;22.10;42.10;;;;;;6320406;27;19938;-52
2022/03/02 05:31:57;;;;;;;;;;;22.40;42.10;;;;;;6318602;27;20858;-55
2022/03/02 05:34:58;;;;;;;;;;;22.50;42.40;;;;;;6318203;27;21376;-55
2022/03/02 05:38:00;;;;;;;;;;;22.00;41.90;;;;;;6311420;27;19934;-52
2022/03/02 05:41:02;;;;;;;;;;;22.10;42.00;;;;;;6321262;27;19978;-55
2022/03/02 05:44:04;;;;;;;;;;;22.20;42.10;;;;;;6317775;27;19950;-50
2022/03/02 05:47:06;;;;;;;;;;;22.20;42.10;;;;;;6313130;27;20800;-55
2022/03/02 05:50:08;;;;;;;;;;;21.80;41.90;;;;;;6316824;27;19984;-54
2022/03/02 05:53:10;;;;;;;;;;;22.10;41.90;;;;;;6316401;27;20041;-54
2022/03/02 05:56:11;;;;;;;;;;;22.10;41.90;;;;;;6314500;27;20481;-54
2022/03/02 05:59:14;;;;;;;;;;;22.10;42.10;;;;;;6311271;27;19931;-54
2022/03/02 06:02:15;;;;;;;;;;;22.30;42.00;;;;;;6307837;27;20447;-55
2022/03/02 06:05:17;;;;;;;;;;;22.20;42.20;;;;;;6307903;27;19966;-54
2022/03/02 06:08:19;;;;;;;;;;;22.20;42.30;;;;;;6315427;27;20451;-50
2022/03/02 06:11:20;;;;;;;;;;;22.50;42.10;;;;;;6305748;27;20043;-51
2022/03/02 06:14:22;;;;;;;;;;;21.80;41.90;;;;;;6306548;27;20038;-55
2022/03/02 06:17:23;;;;;;;;;;;22.00;41.80;;;;;;6311008;27;19923;-53
2022/03/02 06:20:25;;;;;;;;;;;22.30;42.20;;;;;;6313386;27;20050;-52
2022/03/02 06:23:28;;;;;;;;;;;21.90;41.90;;;;;;6313780;27;20818;-55
2022/03/02 06:26:29;;;;;;;;;;;22.20;42.10;;;;;;6293483;27;19939;-51
2022/03/02 06:29:31;;;;;;;;;;;22.20;41.90;;;;;;6314201;27;20002;-53
2022/03/02 06:32:32;;;;;;;;;;;22.30;42.20;;;;;;6312441;27;19977;-53
2022/03/02 06:35:34;;;;;;;;;;;22.10;42.00;;;;;;6315473;27;19975;-56
2022/03/02 06:38:36;;;;;;;;;;;21.80;41.90;;;;;;6313179;27;20037;-54
2022/03/02 06:41:45;;;;;;;;;;;22.20;42.00;;;;;;6300497;27;19927;-52
2022/03/02 06:44:53;;;;;;;;;;;22.20;41.60;;;;;;6297724;27;19942;-54
2022/03/02 06:47:58;;;;;;;;;;;22.10;41.80;;;;;;6294495;27;20042;-56
2022/03/02 06:50:59;;;;;;;;;;;21.90;41.70;;;;;;6309683;27;19931;-54
2022/03/02 06:54:04;;;;;;;;;;;22.20;41.70;;;;;;6311851;27;20053;-55
2022/03/02 06:57:06;;;;;;;;;;;21.90;41.60;;;;;;6306539;27;19931;-54
2022/03/02 07:00:10;;;;;;;;;;;22.20;41.60;;;;;;6306925;27;20114;-55
2022/03/02 07:03:11;;;;;;;;;;;22.10;41.60;;;;;;6304651;27;19938;-49
2022/03/02 07:06:14;;;;;;;;;;;22.20;41.80;;;;;;6306441;27;22016;-55
2022/03/02 07:09:16;;;;;;;;;;;21.90;41.40;;;;;;6306856;27;20973;-53
2022/03/02 07:12:18;;;;;;;;;;;22.30;41.50;;;;;;6286525;27;20009;-56
2022/03/02 07:15:20;;;;;;;;;;;22.70;41.80;;;;;;6283582;27;19967;-55
2022/03/02 07:18:21;;;;;;;;;;;22.30;41.50;;;;;;6293564;27;19939;-54
2022/03/02 07:21:25;;;;;;;;;;;22.20;41.50;;;;;;6288475;27;19932;-52
2022/03/02 07:24:30;;;;;;;;;;;22.40;41.50;;;;;;6254727;27;20852;-54
2022/03/02 07:27:31;;;;;;;;;;;22.00;41.20;;;;;;6250623;27;21082;-51
2022/03/02 07:30:33;;;;;;;;;;;22.00;41.10;;;;;;6251175;27;20051;-51
2022/03/02 07:33:36;;;;;;;;;;;22.70;41.30;;;;;;6256611;27;19931;-54
2022/03/02 07:36:37;;;;;;;;;;;22.10;41.10;;;;;;6225021;27;20964;-53
2022/03/02 07:39:41;;;;;;;;;;;22.20;41.20;;;;;;6240342;27;19931;-49
2022/03/02 07:42:44;;;;;;;;;;;22.40;41.20;;;;;;6232997;27;19938;-50
2022/03/02 07:45:46;;;;;;;;;;;22.50;41.20;;;;;;6218665;27;30068;-51
2022/03/02 07:48:48;;;;;;;;;;;22.30;40.90;;;;;;6222583;27;20927;-54
2022/03/02 07:51:51;;;;;;;;;;;22.70;41.10;;;;;;6196048;27;21025;-55
2022/03/02 07:54:54;;;;;;;;;;;22.30;40.70;;;;;;6193132;27;29770;-53
2022/03/02 07:57:57;;;;;;;;;;;22.30;40.70;;;;;;6180706;27;20003;-56
2022/03/02 08:00:59;;;;;;;;;;;22.30;41.30;;;;;;6161459;27;44706;-51
2022/03/02 08:04:03;;;;;;;;;;;22.80;40.90;;;;;;6141507;27;19939;-54
2022/03/02 08:07:05;;;;;;;;;;;22.50;40.70;;;;;;6145429;27;19931;-52
2022/03/02 08:10:08;;;;;;;;;;;22.80;40.80;;;;;;6115604;27;19931;-54
2022/03/02 08:13:11;;;;;;;;;;;22.70;40.70;;;;;;6133991;27;19935;-48
2022/03/02 08:16:13;;;;;;;;;;;22.70;40.60;;;;;;6118117;27;19987;-48
2022/03/02 08:19:14;;;;;;;;;;;22.50;40.60;;;;;;6128565;27;22883;-50
2022/03/02 08:22:18;;;;;;;;;;;22.90;40.90;;;;;;6125381;27;19938;-51
2022/03/02 08:25:21;;;;;;;;;;;22.90;40.80;;;;;;6091732;27;19931;-50
2022/03/02 08:28:23;;;;;;;;;;;23.00;40.70;;;;;;6078010;27;20019;-49
2022/03/02 08:31:25;;;;;;;;;;;22.90;40.60;;;;;;6091870;27;19931;-52
2022/03/02 08:34:27;;;;;;;;;;;22.80;40.00;;;;;;6050034;27;20136;-51
2022/03/02 08:37:29;;;;;;;;;;;22.70;40.40;;;;;;6098483;27;19935;-48
2022/03/02 08:40:32;;;;;;;;;;;22.70;40.30;;;;;;6104665;27;20811;-48
2022/03/02 08:43:35;;;;;;;;;;;22.70;40.40;;;;;;6056761;27;22059;-47
2022/03/02 08:46:37;;;;;;;;;;;23.10;40.30;;;;;;6085677;27;19931;-51
2022/03/02 08:49:39;;;;;;;;;;;22.80;40.30;;;;;;6089765;27;19931;-51
2022/03/02 08:52:40;;;;;;;;;;;23.20;40.40;;;;;;6108435;27;19931;-49
2022/03/02 08:55:43;;;;;;;;;;;23.20;40.10;;;;;;6079295;27;22038;-49
2022/03/02 08:58:44;;;;;;;;;;;23.30;40.00;;;;;;6097721;27;20951;-50
2022/03/02 09:01:50;;;;;;;;;;;23.20;40.20;;;;;;6109116;27;19967;-49
2022/03/02 09:04:54;;;;;;;;;;;23.30;40.20;;;;;;6101027;27;19985;-50
2022/03/02 09:07:55;;;;;;;;;;;23.00;39.60;;;;;;6093214;27;19931;-50
2022/03/02 09:10:58;;;;;;;;;;;23.20;39.80;;;;;;6083716;27;19931;-52
2022/03/02 09:14:00;;;;;;;;;;;23.40;39.70;;;;;;6069716;27;20031;-50
2022/03/02 09:17:05;;;;;;;;;;;23.00;39.50;;;;;;6124069;27;19978;-51
2022/03/02 09:20:08;;;;;;;;;;;23.40;39.50;;;;;;6094110;27;19931;-49
2022/03/02 09:23:09;;;;;;;;;;;23.10;39.40;;;;;;6086565;27;19986;-48
2022/03/02 09:26:13;;;;;;;;;;;23.20;39.40;;;;;;6065973;27;22001;-47
2022/03/02 09:29:15;;;;;;;;;;;23.00;39.30;;;;;;6086815;27;19957;-48
2022/03/02 09:32:19;;;;;;;;;;;23.40;39.40;;;;;;6081071;27;21732;-48
2022/03/02 09:35:21;;;;;;;;;;;23.60;39.80;;;;;;6114639;27;19931;-49
2022/03/02 09:38:24;;;;;;;;;;;23.10;39.60;;;;;;6119803;27;20142;-53
2022/03/02 09:41:29;;;;;;;;;;;23.50;39.70;;;;;;6060162;27;21086;-51
2022/03/02 09:44:32;;;;;;;;;;;23.50;39.60;;;;;;6108946;27;19983;-51
2022/03/02 09:47:37;;;;;;;;;;;23.90;39.80;;;;;;6116705;27;19978;-50
2022/03/02 09:50:40;;;;;;;;;;;23.40;39.50;;;;;;6113017;27;20194;-51
2022/03/02 09:53:44;;;;;;;;;;;23.40;39.60;;;;;;6104713;27;19931;-49
2022/03/02 09:56:48;;;;;;;;;;;23.50;39.60;;;;;;6139661;27;20367;-50
2022/03/02 09:59:51;;;;;;;;;;;23.40;39.40;;;;;;6100083;27;19931;-50
2022/03/02 10:02:55;;;;;;;;;;;23.60;39.70;;;;;;6063412;27;22287;-50
2022/03/02 10:05:56;;;;;;;;;;;23.40;39.50;;;;;;6088366;27;20058;-50
2022/03/02 10:09:02;;;;;;;;;;;23.70;39.70;;;;;;6121378;27;19937;-51
2022/03/02 10:12:08;;;;;;;;;;;23.30;39.00;;;;;;6110818;27;19931;-49
2022/03/02 10:15:11;;;;;;;;;;;23.60;39.60;;;;;;6105251;27;21784;-51
2022/03/02 10:18:13;;;;;;;;;;;23.30;39.50;;;;;;6091097;27;20069;-50
2022/03/02 10:21:15;;;;;;;;;;;23.50;39.60;;;;;;6076264;27;19938;-48
2022/03/02 10:24:19;;;;;;;;;;;23.70;39.60;;;;;;6065907;27;23769;-48
2022/03/02 10:27:32;;;;;;;;;;;23.50;39.30;;;;;;6078589;27;19939;-48
2022/03/02 10:30:36;;;;;;;;;;;23.50;39.40;;;;;;6103928;27;20073;-50
2022/03/02 10:33:38;;;;;;;;;;;23.50;39.40;;;;;;6106962;27;24076;-48
2022/03/02 10:36:41;;;;;;;;;;;23.70;39.60;;;;;;6082568;27;19937;-48
2022/03/02 10:39:56;;;;;;;;;;;23.50;39.30;;;;;;6115159;27;21316;-52
2022/03/02 10:43:00;;;;;;;;;;;23.40;39.50;;;;;;6110977;27;21247;-51
2022/03/02 10:46:03;;;;;;;;;;;23.70;39.40;;;;;;6092271;27;19931;-49
2022/03/02 10:49:06;;;;;;;;;;;23.80;39.40;;;;;;6080022;27;21400;-47
2022/03/02 10:52:10;;;;;;;;;;;23.70;39.50;;;;;;6080981;27;20293;-48
2022/03/02 10:55:13;;;;;;;;;;;23.60;39.30;;;;;;6058382;27;19931;-47
2022/03/02 10:58:16;;;;;;;;;;;23.30;39.20;;;;;;6112200;27;20069;-50
2022/03/02 11:01:17;;;;;;;;;;;23.80;39.50;;;;;;6106543;27;19931;-48
2022/03/02 11:04:20;;;;;;;;;;;23.70;39.40;;;;;;6106820;27;19971;-49
2022/03/02 11:07:23;;;;;;;;;;;23.30;39.20;;;;;;6112235;27;19937;-48
2022/03/02 11:10:33;;;;;;;;;;;23.40;39.30;;;;;;6108422;27;19931;-51
2022/03/02 11:13:35;;;;;;;;;;;23.80;39.60;;;;;;6126970;27;19951;-50
2022/03/02 11:16:36;;;;;;;;;;;23.90;39.60;;;;;;6154562;27;21214;-48
2022/03/02 11:19:42;;;;;;;;;;;23.70;39.90;;;;;;6157175;27;19939;-51
2022/03/02 11:22:50;;;;;;;;;;;23.70;39.70;;;;;;6123138;27;20308;-53
2022/03/02 11:25:53;;;;;;;;;;;23.60;39.50;;;;;;6167980;27;21137;-49
2022/03/02 11:28:56;;;;;;;;;;;23.60;39.60;;;;;;6180153;27;21630;-51
2022/03/02 11:32:09;;;;;;;;;;;23.30;39.40;;;;;;6160076;27;21613;-49
2022/03/02 11:35:14;;;;;;;;;;;23.70;39.70;;;;;;6199472;27;19938;-49
2022/03/02 11:38:18;;;;;;;;;;;23.40;39.70;;;;;;6194417;27;20970;-54
2022/03/02 11:41:30;;;;;;;;;;;23.70;39.50;;;;;;6202015;27;23286;-55
2022/03/02 11:44:33;;;;;;;;;;;23.80;39.50;;;;;;6217923;27;21146;-53
2022/03/02 11:47:38;;;;;;;;;;;24.00;39.80;;;;;;6194521;27;20089;-50
2022/03/02 11:50:56;;;;;;;;;;;23.60;39.50;;;;;;6205139;27;19931;-49
2022/03/02 11:53:58;;;;;;;;;;;23.70;39.40;;;;;;6223757;27;21912;-52
2022/03/02 11:57:02;;;;;;;;;;;23.40;39.30;;;;;;6239347;27;20869;-51
2022/03/02 12:00:07;;;;;;;;;;;23.60;40.00;;;;;;6213455;27;19932;-49
2022/03/02 12:03:13;;;;;;;;;;;23.80;39.60;;;;;;6216168;27;21111;-47
2022/03/02 12:06:17;;;;;;;;;;;23.80;39.60;;;;;;6140840;27;20138;-52
2022/03/02 12:09:26;;;;;;;;;;;23.80;39.50;;;;;;6226646;27;19932;-49
2022/03/02 12:12:27;;;;;;;;;;;23.70;39.60;;;;;;6216745;27;21169;-47
2022/03/02 12:15:41;;;;;;;;;;;23.40;39.50;;;;;;6226843;27;19931;-48
2022/03/02 12:18:43;;;;;;;;;;;23.50;39.70;;;;;;6206702;27;20015;-52
2022/03/02 12:21:44;;;;;;;;;;;23.60;39.50;;;;;;6209240;27;19931;-48
2022/03/02 12:24:47;;;;;;;;;;;23.60;39.30;;;;;;6215113;27;20621;-52
2022/03/02 12:27:55;;;;;;;;;;;23.90;39.70;;;;;;6223033;27;19931;-52
2022/03/02 12:30:58;;;;;;;;;;;23.70;39.40;;;;;;6160293;27;22455;-50
2022/03/02 12:34:00;;;;;;;;;;;23.80;39.50;;;;;;6203283;27;20803;-50
2022/03/02 12:37:04;;;;;;;;;;;24.10;39.60;;;;;;6203870;27;20065;-53
2022/03/02 12:40:09;;;;;;;;;;;23.60;39.50;;;;;;6216656;27;20093;-49
2022/03/02 12:43:13;;;;;;;;;;;23.70;39.50;;;;;;6177402;27;20982;-51
2022/03/02 12:46:16;;;;;;;;;;;23.50;39.30;;;;;;6229663;27;19931;-48
2022/03/02 12:49:17;;;;;;;;;;;24.00;39.50;;;;;;6173821;27;19931;-50
2022/03/02 12:52:21;;;;;;;;;;;23.60;39.50;;;;;;6173067;27;20074;-50
2022/03/02 12:55:22;;;;;;;;;;;23.90;39.40;;;;;;6140140;27;19931;-47
2022/03/02 12:58:24;;;;;;;;;;;23.70;39.50;;;;;;6159590;27;22130;-50
2022/03/02 13:01:26;;;;;;;;;;;23.60;39.70;;;;;;6102232;27;19931;-50
2022/03/02 13:04:30;;;;;;;;;;;23.80;40.30;;;;;;6105765;27;19971;-49
2022/03/02 13:07:39;;;;;;;;;;;23.50;40.30;;;;;;6126601;27;19931;-48
2022/03/02 13:10:42;;;;;;;;;;;24.00;40.40;;;;;;6112047;27;19935;-49
2022/03/02 13:13:43;;;;;;;;;;;23.70;40.30;;;;;;6056295;27;21574;-52
2022/03/02 13:16:45;;;;;;;;;;;23.90;40.40;;;;;;6099371;27;19971;-52
2022/03/02 13:19:48;;;;;;;;;;;23.70;40.20;;;;;;6096412;27;19978;-50
2022/03/02 13:22:50;;;;;;;;;;;24.20;40.60;;;;;;6072631;27;21282;-51
2022/03/02 13:26:06;;;;;;;;;;;23.80;40.40;;;;;;6046659;27;26212;-47
2022/03/02 13:29:11;;;;;;;;;;;23.80;40.30;;;;;;6043299;27;19937;-52
2022/03/02 13:32:13;;;;;;;;;;;23.90;40.40;;;;;;6061008;27;19938;-51
2022/03/02 13:35:15;;;;;;;;;;;24.00;40.40;;;;;;6054025;27;19938;-53
2022/03/02 13:38:16;;;;;;;;;;;23.90;40.40;;;;;;6022473;27;20279;-50
2022/03/02 13:41:33;;;;;;;;;;;23.70;40.40;;;;;;6058872;27;21597;-50
2022/03/02 13:44:35;;;;;;;;;;;24.20;40.80;;;;;;6059439;27;19932;-48
2022/03/02 13:47:38;;;;;;;;;;;24.10;40.60;;;;;;6059746;27;19967;-50
2022/03/02 13:50:53;;;;;;;;;;;24.10;40.60;;;;;;6065999;27;21228;-49
2022/03/02 13:53:58;;;;;;;;;;;24.20;40.60;;;;;;6072955;27;28228;-48
2022/03/02 13:57:02;;;;;;;;;;;23.60;40.40;;;;;;6086115;27;21719;-50
2022/03/02 14:00:18;;;;;;;;;;;23.90;40.40;;;;;;6054220;27;19987;-53
2022/03/02 14:03:28;;;;;;;;;;;24.30;40.70;;;;;;6012280;27;30551;-48
2022/03/02 14:06:30;;;;;;;;;;;24.20;40.60;;;;;;6094111;27;19939;-51
2022/03/02 14:09:32;;;;;;;;;;;24.10;40.60;;;;;;6102542;27;19939;-50
2022/03/02 14:12:33;;;;;;;;;;;24.20;40.70;;;;;;6097788;27;19937;-50
2022/03/02 14:15:35;;;;;;;;;;;24.10;40.60;;;;;;6120191;27;21263;-48
2022/03/02 14:18:37;;;;;;;;;;;23.80;40.40;;;;;;6058491;27;19931;-50
2022/03/02 14:21:50;;;;;;;;;;;24.10;40.30;;;;;;6078723;27;19931;-49
2022/03/02 14:24:52;;;;;;;;;;;24.40;40.30;;;;;;6100515;27;20894;-50
2022/03/02 14:27:55;;;;;;;;;;;24.30;40.30;;;;;;6131066;27;19931;-51
2022/03/02 14:30:59;;;;;;;;;;;24.20;40.40;;;;;;6120897;27;19938;-49
2022/03/02 14:34:01;;;;;;;;;;;24.20;40.30;;;;;;6077359;27;19938;-49
2022/03/02 14:37:10;;;;;;;;;;;24.20;40.20;;;;;;6104211;27;19931;-50
2022/03/02 14:40:13;;;;;;;;;;;23.90;39.90;;;;;;6124876;27;19971;-50
2022/03/02 14:43:16;;;;;;;;;;;23.70;40.00;;;;;;6111536;27;19994;-48
2022/03/02 14:46:17;;;;;;;;;;;24.20;40.20;;;;;;6089841;27;20125;-49
2022/03/02 14:49:19;;;;;;;;;;;23.60;39.90;;;;;;6089409;27;19945;-48
2022/03/02 14:52:28;;;;;;;;;;;24.10;40.40;;;;;;6088215;27;19944;-49
2022/03/02 14:55:32;;;;;;;;;;;23.90;40.10;;;;;;6098305;27;19931;-48
2022/03/02 14:58:37;;;;;;;;;;;24.30;40.40;;;;;;6098397;27;19931;-52
2022/03/02 15:01:40;;;;;;;;;;;23.90;40.30;;;;;;6075106;27;20015;-49
2022/03/02 15:04:53;;;;;;;;;;;23.90;40.30;;;;;;6082966;27;20069;-48
2022/03/02 15:07:56;;;;;;;;;;;23.90;40.30;;;;;;6090486;27;22001;-52
2022/03/02 15:11:10;;;;;;;;;;;24.20;40.20;;;;;;6112293;27;19935;-49
2022/03/02 15:17:32;;;;;;;;;;;24.30;40.50;;;;;;6131002;27;19939;-47
2022/03/02 15:20:34;;;;;;;;;;;23.80;40.20;;;;;;6100119;27;20019;-51
2022/03/02 15:23:36;;;;;;;;;;;23.90;40.20;;;;;;6094704;27;21893;-49
2022/03/02 15:26:37;;;;;;;;;;;24.30;40.60;;;;;;6119195;27;19931;-50
2022/03/02 15:29:39;;;;;;;;;;;24.30;40.30;;;;;;6105599;27;19937;-49
2022/03/02 15:32:42;;;;;;;;;;;24.30;40.50;;;;;;6073292;27;22276;-51
2022/03/02 15:35:44;;;;;;;;;;;24.40;40.20;;;;;;6058226;27;28538;-49
2022/03/02 15:38:46;;;;;;;;;;;23.90;40.10;;;;;;6057088;27;19935;-49
2022/03/02 15:41:55;;;;;;;;;;;24.20;40.60;;;;;;6061006;27;19931;-51
2022/03/02 15:44:57;;;;;;;;;;;24.00;40.30;;;;;;6040876;27;19935;-48
2022/03/02 15:47:59;;;;;;;;;;;24.00;40.50;;;;;;6046449;27;19985;-51
2022/03/02 15:51:04;;;;;;;;;;;24.40;40.90;;;;;;6055660;27;19931;-52
2022/03/02 15:54:09;;;;;;;;;;;24.30;40.70;;;;;;6080320;27;39086;-50
2022/03/02 15:57:11;;;;;;;;;;;24.10;40.60;;;;;;6069491;27;19931;-49
2022/03/02 16:00:13;;;;;;;;;;;24.60;40.80;;;;;;6065165;27;19932;-52
2022/03/02 16:03:21;;;;;;;;;;;24.00;40.50;;;;;;6068010;27;20031;-48
2022/03/02 16:06:23;;;;;;;;;;;24.30;40.70;;;;;;6101999;27;19935;-50
2022/03/02 16:09:25;;;;;;;;;;;24.30;40.60;;;;;;6117150;27;19931;-53
2022/03/02 16:12:42;;;;;;;;;;;24.50;40.60;;;;;;6113883;27;20263;-52
2022/03/02 16:15:45;;;;;;;;;;;24.40;40.80;;;;;;6116197;27;19978;-52
2022/03/02 16:18:46;;;;;;;;;;;24.30;40.70;;;;;;6124973;27;21297;-51
2022/03/02 16:21:49;;;;;;;;;;;24.70;41.00;;;;;;6117141;27;19939;-48
2022/03/02 16:24:51;;;;;;;;;;;24.00;40.60;;;;;;6113358;27;20434;-54
2022/03/02 16:27:56;;;;;;;;;;;24.30;40.80;;;;;;6135708;27;20006;-52
2022/03/02 16:30:58;;;;;;;;;;;24.40;40.80;;;;;;6151593;27;20523;-51
2022/03/02 16:34:00;;;;;;;;;;;24.50;40.90;;;;;;6129262;27;20062;-49
2022/03/02 16:37:04;;;;;;;;;;;24.30;40.90;;;;;;6156378;27;21048;-52
2022/03/02 16:40:06;;;;;;;;;;;23.90;41.10;;;;;;6152859;27;19953;-49
2022/03/02 16:43:09;;;;;;;;;;;23.80;41.10;;;;;;6170935;27;21195;-51
2022/03/02 16:46:10;;;;;;;;;;;24.50;41.40;;;;;;6141546;27;21290;-51
2022/03/02 16:49:11;;;;;;;;;;;24.30;41.30;;;;;;6173221;27;21523;-49
2022/03/02 16:52:14;;;;;;;;;;;24.00;41.20;;;;;;6176479;27;19938;-51
2022/03/02 16:55:16;;;;;;;;;;;24.00;41.20;;;;;;6169337;27;20192;-52
2022/03/02 16:58:17;;;;;;;;;;;24.40;41.20;;;;;;6154634;27;19931;-49
2022/03/02 17:01:19;;;;;;;;;;;24.00;41.20;;;;;;6194821;27;20039;-52
2022/03/02 17:04:22;;;;;;;;;;;24.50;41.40;;;;;;6184644;27;19938;-51
2022/03/02 17:07:24;;;;;;;;;;;24.30;41.50;;;;;;6217282;27;21038;-48
2022/03/02 17:10:25;;;;;;;;;;;24.00;41.20;;;;;;6224532;27;20973;-48
2022/03/02 17:13:31;;;;;;;;;;;24.40;41.40;;;;;;6234334;27;19938;-47
2022/03/02 17:16:32;;;;;;;;;;;24.30;41.60;;;;;;6222026;27;20866;-51
2022/03/02 17:19:34;;;;;;;;;;;24.20;40.90;;;;;;6238029;27;21812;-47
2022/03/02 17:22:36;;;;;;;;;;;24.20;41.60;;;;;;6240725;27;21516;-54
2022/03/02 17:25:37;;;;;;;;;;;24.60;41.60;;;;;;6246110;27;19931;-49
2022/03/02 17:28:39;;;;;;;;;;;23.90;41.60;;;;;;6244882;27;19931;-49
2022/03/02 17:31:41;;;;;;;;;;;24.20;41.50;;;;;;6260308;27;21918;-53
2022/03/02 17:34:42;;;;;;;;;;;24.50;41.90;;;;;;6262028;27;20000;-51
2022/03/02 17:37:49;;;;;;;;;;;24.10;41.60;;;;;;6276102;27;20828;-52
2022/03/02 17:40:51;;;;;;;;;;;23.80;41.50;;;;;;6274240;27;20019;-52
2022/03/02 17:43:52;;;;;;;;;;;24.20;41.90;;;;;;6280374;27;19931;-49
2022/03/02 17:46:54;;;;;;;;;;;24.30;41.90;;;;;;6279350;27;21348;-49